sensor_id;sensor_type;location;lat;lon;timestamp;pressure;altitude;pressure_sealevel;temperature;humidity
51986;BME280;38002;53.296;6.600;2023-05-23T00:02:06;101854.19;;;14.04;83.77
51986;BME280;38002;53.296;6.600;2023-05-23T00:07:07;101871.47;;;14.05;83.52
51986;BME280;38002;53.296;6.600;2023-05-23T00:12:08;101859.66;;;14.04;83.61
51986;BME280;38002;53.296;6.600;2023-05-23T00:17:08;101866.31;;;14.02;83.63
51986;BME280;38002;53.296;6.600;2023-05-23T00:22:12;101866.31;;;14.02;83.81
51986;BME280;38002;53.296;6.600;2023-05-23T00:27:15;101860.16;;;14.00;83.92
51986;BME280;38002;53.296;6.600;2023-05-23T00:32:16;101863.22;;;13.97;83.67
51986;BME280;38002;53.296;6.600;2023-05-23T00:37:16;101871.03;;;13.92;84.35
51986;BME280;38002;53.296;6.600;2023-05-23T00:42:17;101873.91;;;13.90;84.19
51986;BME280;38002;53.296;6.600;2023-05-23T00:47:17;101879.72;;;13.87;84.10
51986;BME280;38002;53.296;6.600;2023-05-23T00:52:18;101892.84;;;13.84;84.19
51986;BME280;38002;53.296;6.600;2023-05-23T00:57:19;101893.13;;;13.81;84.11
51986;BME280;38002;53.296;6.600;2023-05-23T01:02:19;101893.63;;;13.76;84.17
51986;BME280;38002;53.296;6.600;2023-05-23T01:07:20;101898.25;;;13.76;84.90
51986;BME280;38002;53.296;6.600;2023-05-23T01:12:33;101905.72;;;13.74;84.97
51986;BME280;38002;53.296;6.600;2023-05-23T01:17:44;101915.59;;;13.67;84.66
51986;BME280;38002;53.296;6.600;2023-05-23T01:28:01;101918.84;;;13.52;84.48
51986;BME280;38002;53.296;6.600;2023-05-23T01:33:03;101914.16;;;13.45;85.06
51986;BME280;38002;53.296;6.600;2023-05-23T01:38:03;101916.81;;;13.37;85.57
51986;BME280;38002;53.296;6.600;2023-05-23T01:43:04;101929.34;;;13.30;85.45
51986;BME280;38002;53.296;6.600;2023-05-23T01:48:06;101938.31;;;13.22;84.96
51986;BME280;38002;53.296;6.600;2023-05-23T01:53:07;101948.84;;;13.07;86.57
51986;BME280;38002;53.296;6.600;2023-05-23T01:58:09;101954.06;;;13.01;85.37
51986;BME280;38002;53.296;6.600;2023-05-23T02:03:09;101963.16;;;12.92;85.28
51986;BME280;38002;53.296;6.600;2023-05-23T02:08:10;101971.66;;;12.89;85.04
51986;BME280;38002;53.296;6.600;2023-05-23T02:13:11;101974.97;;;12.83;85.30
51986;BME280;38002;53.296;6.600;2023-05-23T02:18:11;101978.34;;;12.77;85.34
51986;BME280;38002;53.296;6.600;2023-05-23T02:23:12;101991.69;;;12.70;85.79
51986;BME280;38002;53.296;6.600;2023-05-23T02:28:12;101994.72;;;12.67;85.76
51986;BME280;38002;53.296;6.600;2023-05-23T02:33:13;101995.16;;;12.62;85.35
51986;BME280;38002;53.296;6.600;2023-05-23T02:38:13;101992.31;;;12.54;85.82
51986;BME280;38002;53.296;6.600;2023-05-23T02:43:14;101998.66;;;12.45;86.05
51986;BME280;38002;53.296;6.600;2023-05-23T02:48:15;102004.84;;;12.38;85.90
51986;BME280;38002;53.296;6.600;2023-05-23T02:53:15;102002.69;;;12.32;86.43
51986;BME280;38002;53.296;6.600;2023-05-23T02:58:15;102000.97;;;12.31;86.18
51986;BME280;38002;53.296;6.600;2023-05-23T03:03:16;102011.44;;;12.25;86.58
51986;BME280;38002;53.296;6.600;2023-05-23T03:08:17;102005.00;;;12.17;87.00
51986;BME280;38002;53.296;6.600;2023-05-23T03:13:17;102016.50;;;12.20;86.75
51986;BME280;38002;53.296;6.600;2023-05-23T03:18:18;102022.22;;;12.17;87.02
51986;BME280;38002;53.296;6.600;2023-05-23T03:23:18;102021.50;;;12.15;86.74
51986;BME280;38002;53.296;6.600;2023-05-23T03:28:19;102041.72;;;12.13;86.55
51986;BME280;38002;53.296;6.600;2023-05-23T03:33:19;102046.31;;;12.12;87.02
51986;BME280;38002;53.296;6.600;2023-05-23T03:38:20;102047.34;;;12.11;87.40
51986;BME280;38002;53.296;6.600;2023-05-23T03:43:20;102054.97;;;12.08;87.48
51986;BME280;38002;53.296;6.600;2023-05-23T03:48:21;102066.13;;;12.05;87.10
51986;BME280;38002;53.296;6.600;2023-05-23T03:53:21;102060.69;;;12.05;87.25
51986;BME280;38002;53.296;6.600;2023-05-23T03:58:21;102070.13;;;12.01;87.14
51986;BME280;38002;53.296;6.600;2023-05-23T04:03:22;102072.00;;;12.00;87.56
51986;BME280;38002;53.296;6.600;2023-05-23T04:08:22;102072.00;;;12.00;86.94
51986;BME280;38002;53.296;6.600;2023-05-23T04:13:23;102083.19;;;11.97;87.06
51986;BME280;38002;53.296;6.600;2023-05-23T04:18:25;102080.91;;;11.93;86.96
51986;BME280;38002;53.296;6.600;2023-05-23T04:23:26;102090.81;;;11.94;86.74
51986;BME280;38002;53.296;6.600;2023-05-23T04:28:26;102101.53;;;11.95;87.37
51986;BME280;38002;53.296;6.600;2023-05-23T04:33:28;102111.00;;;11.91;87.12
51986;BME280;38002;53.296;6.600;2023-05-23T04:38:29;102111.88;;;11.92;87.27
51986;BME280;38002;53.296;6.600;2023-05-23T04:43:31;102126.78;;;11.88;87.18
51986;BME280;38002;53.296;6.600;2023-05-23T04:48:32;102134.09;;;11.87;86.88
51986;BME280;38002;53.296;6.600;2023-05-23T04:53:35;102144.72;;;11.80;86.84
51986;BME280;38002;53.296;6.600;2023-05-23T04:58:36;102144.13;;;11.77;86.88
51986;BME280;38002;53.296;6.600;2023-05-23T05:03:36;102157.56;;;11.69;87.17
51986;BME280;38002;53.296;6.600;2023-05-23T05:08:37;102165.09;;;11.65;87.09
51986;BME280;38002;53.296;6.600;2023-05-23T05:13:39;102169.28;;;11.60;87.03
51986;BME280;38002;53.296;6.600;2023-05-23T05:18:40;102182.72;;;11.52;87.52
51986;BME280;38002;53.296;6.600;2023-05-23T05:23:41;102175.94;;;11.46;86.83
51986;BME280;38002;53.296;6.600;2023-05-23T05:28:42;102187.13;;;11.43;87.10
51986;BME280;38002;53.296;6.600;2023-05-23T05:33:43;102192.09;;;11.38;86.85
51986;BME280;38002;53.296;6.600;2023-05-23T05:38:45;102196.69;;;11.37;86.67
51986;BME280;38002;53.296;6.600;2023-05-23T05:43:45;102201.25;;;11.37;86.60
51986;BME280;38002;53.296;6.600;2023-05-23T05:48:45;102203.22;;;11.35;86.47
51986;BME280;38002;53.296;6.600;2023-05-23T05:53:46;102218.00;;;11.32;86.28
51986;BME280;38002;53.296;6.600;2023-05-23T05:58:48;102234.75;;;11.28;85.70
51986;BME280;38002;53.296;6.600;2023-05-23T06:03:49;102232.75;;;11.30;85.84
51986;BME280;38002;53.296;6.600;2023-05-23T06:08:49;102244.91;;;11.26;85.94
51986;BME280;38002;53.296;6.600;2023-05-23T06:13:50;102244.56;;;11.19;86.04
51986;BME280;38002;53.296;6.600;2023-05-23T06:18:50;102245.56;;;11.18;85.58
51986;BME280;38002;53.296;6.600;2023-05-23T06:23:51;102263.63;;;11.19;85.60
51986;BME280;38002;53.296;6.600;2023-05-23T06:28:51;102266.63;;;11.16;85.63
51986;BME280;38002;53.296;6.600;2023-05-23T06:33:52;102281.22;;;11.15;85.30
51986;BME280;38002;53.296;6.600;2023-05-23T06:38:53;102281.41;;;11.23;84.90
51986;BME280;38002;53.296;6.600;2023-05-23T06:43:53;102285.22;;;11.32;84.39
51986;BME280;38002;53.296;6.600;2023-05-23T06:48:54;102282.69;;;11.40;84.16
51986;BME280;38002;53.296;6.600;2023-05-23T06:53:54;102292.91;;;11.48;83.69
51986;BME280;38002;53.296;6.600;2023-05-23T06:58:56;102291.69;;;11.52;83.13
51986;BME280;38002;53.296;6.600;2023-05-23T07:03:56;102303.75;;;11.59;82.93
51986;BME280;38002;53.296;6.600;2023-05-23T07:08:57;102312.25;;;11.65;82.93
51986;BME280;38002;53.296;6.600;2023-05-23T07:13:57;102323.16;;;11.65;82.80
51986;BME280;38002;53.296;6.600;2023-05-23T07:19:00;102330.31;;;11.66;82.61
51986;BME280;38002;53.296;6.600;2023-05-23T07:24:00;102331.06;;;11.68;82.21
51986;BME280;38002;53.296;6.600;2023-05-23T07:29:01;102340.34;;;11.77;82.32
51986;BME280;38002;53.296;6.600;2023-05-23T07:34:01;102340.94;;;11.80;81.80
51986;BME280;38002;53.296;6.600;2023-05-23T07:39:02;102334.41;;;11.93;81.45
51986;BME280;38002;53.296;6.600;2023-05-23T07:44:03;102336.19;;;12.03;81.02
51986;BME280;38002;53.296;6.600;2023-05-23T07:49:03;102345.81;;;12.07;81.18
51986;BME280;38002;53.296;6.600;2023-05-23T07:54:04;102354.31;;;12.14;80.80
51986;BME280;38002;53.296;6.600;2023-05-23T07:59:04;102347.59;;;12.18;80.06
51986;BME280;38002;53.296;6.600;2023-05-23T08:04:05;102356.22;;;12.23;79.80
51986;BME280;38002;53.296;6.600;2023-05-23T08:09:06;102354.41;;;12.33;79.29
51986;BME280;38002;53.296;6.600;2023-05-23T08:14:06;102369.09;;;12.42;79.47
51986;BME280;38002;53.296;6.600;2023-05-23T08:19:07;102364.69;;;12.60;79.19
51986;BME280;38002;53.296;6.600;2023-05-23T08:24:07;102372.81;;;12.90;78.21
51986;BME280;38002;53.296;6.600;2023-05-23T08:29:08;102378.66;;;13.16;77.69
51986;BME280;38002;53.296;6.600;2023-05-23T08:34:09;102378.38;;;13.19;77.59
51986;BME280;38002;53.296;6.600;2023-05-23T08:39:10;102383.44;;;13.24;77.30
51986;BME280;38002;53.296;6.600;2023-05-23T08:44:12;102388.91;;;13.24;77.07
51986;BME280;38002;53.296;6.600;2023-05-23T08:49:12;102379.38;;;13.18;77.06
51986;BME280;38002;53.296;6.600;2023-05-23T08:54:13;102398.94;;;13.42;76.68
51986;BME280;38002;53.296;6.600;2023-05-23T08:59:14;102403.84;;;13.48;75.84
51986;BME280;38002;53.296;6.600;2023-05-23T09:04:15;102413.34;;;13.44;75.93
51986;BME280;38002;53.296;6.600;2023-05-23T09:09:16;102408.16;;;13.51;75.66
51986;BME280;38002;53.296;6.600;2023-05-23T09:14:17;102408.91;;;13.53;75.28
51986;BME280;38002;53.296;6.600;2023-05-23T09:19:17;102423.13;;;13.56;74.71
51986;BME280;38002;53.296;6.600;2023-05-23T09:24:18;102423.44;;;13.63;74.94
51986;BME280;38002;53.296;6.600;2023-05-23T09:29:19;102430.31;;;13.77;74.34
51986;BME280;38002;53.296;6.600;2023-05-23T09:34:20;102423.13;;;13.95;73.76
51986;BME280;38002;53.296;6.600;2023-05-23T09:39:21;102423.09;;;14.24;73.39
51986;BME280;38002;53.296;6.600;2023-05-23T09:44:22;102426.94;;;14.40;73.01
51986;BME280;38002;53.296;6.600;2023-05-23T09:49:22;102440.88;;;14.47;71.80
51986;BME280;38002;53.296;6.600;2023-05-23T09:54:23;102424.44;;;14.57;72.33
51986;BME280;38002;53.296;6.600;2023-05-23T09:59:27;102430.31;;;14.62;70.74
51986;BME280;38002;53.296;6.600;2023-05-23T10:04:30;102437.84;;;14.50;71.36
51986;BME280;38002;53.296;6.600;2023-05-23T10:09:36;102433.28;;;14.41;71.14
51986;BME280;38002;53.296;6.600;2023-05-23T10:14:42;102443.50;;;14.39;70.58
51986;BME280;38002;53.296;6.600;2023-05-23T10:19:59;102452.13;;;14.34;68.93
51986;BME280;38002;53.296;6.600;2023-05-23T10:25:02;102443.72;;;14.65;69.92
51986;BME280;38002;53.296;6.600;2023-05-23T10:30:06;102451.72;;;14.76;69.97
51986;BME280;38002;53.296;6.600;2023-05-23T10:35:16;102456.59;;;14.82;68.36
51986;BME280;38002;53.296;6.600;2023-05-23T10:45:28;102455.41;;;15.21;68.21
51986;BME280;38002;53.296;6.600;2023-05-23T10:50:34;102465.63;;;15.19;68.09
51986;BME280;38002;53.296;6.600;2023-05-23T10:55:36;102458.31;;;15.10;68.39
51986;BME280;38002;53.296;6.600;2023-05-23T11:00:37;102465.47;;;14.93;68.13
51986;BME280;38002;53.296;6.600;2023-05-23T11:05:46;102479.59;;;14.62;67.56
51986;BME280;38002;53.296;6.600;2023-05-23T11:11:02;102468.41;;;14.45;66.89
51986;BME280;38002;53.296;6.600;2023-05-23T11:16:38;102467.13;;;14.30;66.86
51986;BME280;38002;53.296;6.600;2023-05-23T11:21:39;102477.19;;;14.20;68.50
51986;BME280;38002;53.296;6.600;2023-05-23T11:26:59;102485.53;;;14.47;67.35
51986;BME280;38002;53.296;6.600;2023-05-23T11:32:09;102487.16;;;14.87;66.85
51986;BME280;38002;53.296;6.600;2023-05-23T11:37:11;102482.06;;;15.19;66.58
51986;BME280;38002;53.296;6.600;2023-05-23T11:42:12;102494.59;;;15.31;66.45
51986;BME280;38002;53.296;6.600;2023-05-23T11:47:12;102502.72;;;15.51;66.02
51986;BME280;38002;53.296;6.600;2023-05-23T11:52:13;102502.72;;;15.51;65.79
51986;BME280;38002;53.296;6.600;2023-05-23T11:57:14;102513.53;;;15.52;65.26
51986;BME280;38002;53.296;6.600;2023-05-23T12:02:14;102506.66;;;15.66;65.06
51986;BME280;38002;53.296;6.600;2023-05-23T12:07:18;102508.63;;;15.73;64.57
51986;BME280;38002;53.296;6.600;2023-05-23T12:12:18;102499.00;;;16.05;64.21
51986;BME280;38002;53.296;6.600;2023-05-23T12:17:19;102513.72;;;16.04;64.39
51986;BME280;38002;53.296;6.600;2023-05-23T12:22:23;102513.53;;;16.05;64.06
51986;BME280;38002;53.296;6.600;2023-05-23T12:27:33;102520.94;;;15.87;61.50
51986;BME280;38002;53.296;6.600;2023-05-23T12:32:38;102516.31;;;15.87;63.87
51986;BME280;38002;53.296;6.600;2023-05-23T12:37:40;102521.69;;;15.79;63.78
51986;BME280;38002;53.296;6.600;2023-05-23T12:47:50;102514.81;;;15.93;63.02
51986;BME280;38002;53.296;6.600;2023-05-23T12:52:51;102518.34;;;16.03;63.28
51986;BME280;38002;53.296;6.600;2023-05-23T12:57:52;102530.47;;;16.18;62.83
51986;BME280;38002;53.296;6.600;2023-05-23T13:02:52;102537.69;;;16.19;62.99
51986;BME280;38002;53.296;6.600;2023-05-23T13:07:53;102530.50;;;16.44;62.40
51986;BME280;38002;53.296;6.600;2023-05-23T13:12:54;102524.41;;;16.50;61.80
51986;BME280;38002;53.296;6.600;2023-05-23T13:17:55;102537.75;;;16.27;61.68
51986;BME280;38002;53.296;6.600;2023-05-23T13:22:56;102532.59;;;16.07;61.92
51986;BME280;38002;53.296;6.600;2023-05-23T13:27:57;102531.78;;;16.32;61.59
51986;BME280;38002;53.296;6.600;2023-05-23T13:32:58;102541.44;;;16.36;61.03
51986;BME280;38002;53.296;6.600;2023-05-23T13:37:58;102529.78;;;16.34;61.03
51986;BME280;38002;53.296;6.600;2023-05-23T13:42:59;102528.53;;;16.54;60.44
51986;BME280;38002;53.296;6.600;2023-05-23T13:48:00;102533.16;;;16.71;60.15
51986;BME280;38002;53.296;6.600;2023-05-23T13:53:00;102530.38;;;16.89;60.07
51986;BME280;38002;53.296;6.600;2023-05-23T13:58:01;102541.69;;;16.86;59.65
51986;BME280;38002;53.296;6.600;2023-05-23T14:03:02;102541.25;;;16.73;59.71
51986;BME280;38002;53.296;6.600;2023-05-23T14:08:02;102547.63;;;16.56;59.42
51986;BME280;38002;53.296;6.600;2023-05-23T14:13:05;102542.59;;;16.69;59.29
51986;BME280;38002;53.296;6.600;2023-05-23T14:18:06;102548.84;;;16.79;58.82
51986;BME280;38002;53.296;6.600;2023-05-23T14:23:06;102555.56;;;16.85;58.46
51986;BME280;38002;53.296;6.600;2023-05-23T14:28:07;102551.09;;;16.84;58.01
51986;BME280;38002;53.296;6.600;2023-05-23T14:33:07;102551.56;;;16.79;57.85
51986;BME280;38002;53.296;6.600;2023-05-23T14:38:08;102560.97;;;16.51;57.78
51986;BME280;38002;53.296;6.600;2023-05-23T14:43:09;102565.06;;;16.29;57.63
51986;BME280;38002;53.296;6.600;2023-05-23T14:48:09;102565.94;;;16.12;57.96
51986;BME280;38002;53.296;6.600;2023-05-23T14:53:10;102553.84;;;15.87;58.57
51986;BME280;38002;53.296;6.600;2023-05-23T14:58:11;102557.91;;;16.01;58.16
51986;BME280;38002;53.296;6.600;2023-05-23T15:03:11;102562.00;;;15.97;57.92
51986;BME280;38002;53.296;6.600;2023-05-23T15:08:12;102577.25;;;15.64;58.23
51986;BME280;38002;53.296;6.600;2023-05-23T15:13:13;102557.00;;;15.37;58.12
51986;BME280;38002;53.296;6.600;2023-05-23T15:18:13;102572.63;;;15.27;58.41
51986;BME280;38002;53.296;6.600;2023-05-23T15:23:14;102572.41;;;15.11;58.45
51986;BME280;38002;53.296;6.600;2023-05-23T15:28:15;102577.75;;;15.13;58.42
51986;BME280;38002;53.296;6.600;2023-05-23T15:33:15;102569.25;;;15.06;58.51
51986;BME280;38002;53.296;6.600;2023-05-23T15:38:16;102584.59;;;14.80;58.32
51986;BME280;38002;53.296;6.600;2023-05-23T15:43:17;102587.38;;;14.61;58.36
51986;BME280;38002;53.296;6.600;2023-05-23T15:48:17;102571.13;;;14.40;58.80
51986;BME280;38002;53.296;6.600;2023-05-23T15:53:18;102573.44;;;14.44;59.19
51986;BME280;38002;53.296;6.600;2023-05-23T15:58:19;102576.31;;;14.52;58.94
51986;BME280;38002;53.296;6.600;2023-05-23T16:03:20;102577.00;;;14.54;58.87
51986;BME280;38002;53.296;6.600;2023-05-23T16:08:21;102579.06;;;14.52;58.42
51986;BME280;38002;53.296;6.600;2023-05-23T16:13:21;102581.31;;;14.28;58.69
51986;BME280;38002;53.296;6.600;2023-05-23T16:18:22;102580.31;;;14.10;59.10
51986;BME280;38002;53.296;6.600;2023-05-23T16:23:23;102582.03;;;14.11;59.72
51986;BME280;38002;53.296;6.600;2023-05-23T16:28:25;102578.31;;;14.22;58.92
51986;BME280;38002;53.296;6.600;2023-05-23T16:33:26;102592.56;;;14.25;58.74
51986;BME280;38002;53.296;6.600;2023-05-23T16:38:27;102583.78;;;14.12;59.34
51986;BME280;38002;53.296;6.600;2023-05-23T16:43:27;102578.44;;;14.01;59.25
51986;BME280;38002;53.296;6.600;2023-05-23T16:48:28;102582.47;;;13.87;59.39
51986;BME280;38002;53.296;6.600;2023-05-23T16:53:29;102582.31;;;13.79;59.24
51986;BME280;38002;53.296;6.600;2023-05-23T16:58:29;102574.38;;;13.67;60.15
51986;BME280;38002;53.296;6.600;2023-05-23T17:03:30;102577.94;;;13.57;60.02
51986;BME280;38002;53.296;6.600;2023-05-23T17:08:31;102583.38;;;13.48;60.98
51986;BME280;38002;53.296;6.600;2023-05-23T17:13:32;102577.06;;;13.57;60.69
51986;BME280;38002;53.296;6.600;2023-05-23T17:18:33;102583.94;;;13.51;60.18
51986;BME280;38002;53.296;6.600;2023-05-23T17:23:34;102572.56;;;13.37;60.74
51986;BME280;38002;53.296;6.600;2023-05-23T17:28:36;102581.28;;;13.31;61.11
51986;BME280;38002;53.296;6.600;2023-05-23T17:33:36;102576.97;;;13.28;60.96
51986;BME280;38002;53.296;6.600;2023-05-23T17:38:37;102591.59;;;13.17;60.91
51986;BME280;38002;53.296;6.600;2023-05-23T17:43:40;102591.50;;;13.08;61.56
51986;BME280;38002;53.296;6.600;2023-05-23T17:48:41;102580.56;;;13.08;61.37
51986;BME280;38002;53.296;6.600;2023-05-23T17:53:42;102590.44;;;12.99;61.27
51986;BME280;38002;53.296;6.600;2023-05-23T17:58:42;102586.66;;;12.91;61.84
51986;BME280;38002;53.296;6.600;2023-05-23T18:03:43;102597.97;;;12.86;61.61
51986;BME280;38002;53.296;6.600;2023-05-23T18:08:44;102603.41;;;12.77;61.87
51986;BME280;38002;53.296;6.600;2023-05-23T18:13:46;102605.66;;;12.71;62.34
51986;BME280;38002;53.296;6.600;2023-05-23T18:18:47;102607.56;;;12.60;63.66
51986;BME280;38002;53.296;6.600;2023-05-23T18:23:48;102615.16;;;12.56;62.70
51986;BME280;38002;53.296;6.600;2023-05-23T18:28:49;102613.59;;;12.54;62.77
51986;BME280;38002;53.296;6.600;2023-05-23T18:33:51;102613.50;;;12.44;63.10
51986;BME280;38002;53.296;6.600;2023-05-23T18:38:53;102612.16;;;12.39;63.51
51986;BME280;38002;53.296;6.600;2023-05-23T18:43:53;102595.09;;;12.25;63.73
51986;BME280;38002;53.296;6.600;2023-05-23T18:48:54;102599.75;;;12.14;63.57
51986;BME280;38002;53.296;6.600;2023-05-23T18:53:57;102597.06;;;12.03;64.14
51986;BME280;38002;53.296;6.600;2023-05-23T18:58:57;102596.19;;;12.02;64.43
51986;BME280;38002;53.296;6.600;2023-05-23T19:03:59;102601.06;;;11.99;64.78
51986;BME280;38002;53.296;6.600;2023-05-23T19:09:00;102624.50;;;11.90;64.82
51986;BME280;38002;53.296;6.600;2023-05-23T19:14:01;102623.25;;;11.83;65.84
51986;BME280;38002;53.296;6.600;2023-05-23T19:19:02;102626.50;;;11.77;65.44
51986;BME280;38002;53.296;6.600;2023-05-23T19:24:06;102639.72;;;11.70;65.63
51986;BME280;38002;53.296;6.600;2023-05-23T19:29:15;102641.94;;;11.65;65.65
51986;BME280;38002;53.296;6.600;2023-05-23T19:34:16;102648.03;;;11.58;65.77
51986;BME280;38002;53.296;6.600;2023-05-23T19:39:19;102650.41;;;11.51;66.35
51986;BME280;38002;53.296;6.600;2023-05-23T19:44:22;102645.56;;;11.44;66.32
51986;BME280;38002;53.296;6.600;2023-05-23T19:49:24;102657.84;;;11.38;66.52
51986;BME280;38002;53.296;6.600;2023-05-23T19:54:26;102652.13;;;11.30;66.72
51986;BME280;38002;53.296;6.600;2023-05-23T19:59:28;102642.47;;;11.26;66.74
51986;BME280;38002;53.296;6.600;2023-05-23T20:04:28;102645.69;;;11.20;67.16
51986;BME280;38002;53.296;6.600;2023-05-23T20:09:29;102645.19;;;11.15;67.22
51986;BME280;38002;53.296;6.600;2023-05-23T20:14:30;102632.81;;;11.11;67.54
51986;BME280;38002;53.296;6.600;2023-05-23T20:19:31;102642.31;;;11.05;67.66
51986;BME280;38002;53.296;6.600;2023-05-23T20:24:32;102655.44;;;11.00;68.08
51986;BME280;38002;53.296;6.600;2023-05-23T20:29:32;102649.72;;;10.92;68.22
51986;BME280;38002;53.296;6.600;2023-05-23T20:34:34;102642.94;;;10.86;67.93
51986;BME280;38002;53.296;6.600;2023-05-23T20:39:35;102639.94;;;10.78;68.40
51986;BME280;38002;53.296;6.600;2023-05-23T20:44:37;102644.00;;;10.73;68.75
51986;BME280;38002;53.296;6.600;2023-05-23T20:49:39;102642.63;;;10.67;68.41
51986;BME280;38002;53.296;6.600;2023-05-23T20:54:39;102646.66;;;10.62;68.60
51986;BME280;38002;53.296;6.600;2023-05-23T20:59:41;102634.66;;;10.53;68.82
51986;BME280;38002;53.296;6.600;2023-05-23T21:04:42;102634.16;;;10.48;69.04
51986;BME280;38002;53.296;6.600;2023-05-23T21:09:43;102636.38;;;10.43;69.21
51986;BME280;38002;53.296;6.600;2023-05-23T21:14:43;102634.97;;;10.37;69.38
51986;BME280;38002;53.296;6.600;2023-05-23T21:19:44;102627.41;;;10.30;69.88
51986;BME280;38002;53.296;6.600;2023-05-23T21:24:46;102626.00;;;10.24;70.02
51986;BME280;38002;53.296;6.600;2023-05-23T21:29:48;102630.94;;;10.19;69.72
51986;BME280;38002;53.296;6.600;2023-05-23T21:34:48;102636.59;;;10.16;70.13
51986;BME280;38002;53.296;6.600;2023-05-23T21:39:49;102632.47;;;10.11;70.40
51986;BME280;38002;53.296;6.600;2023-05-23T21:44:49;102628.13;;;10.08;70.49
51986;BME280;38002;53.296;6.600;2023-05-23T21:49:50;102634.66;;;10.06;70.40
51986;BME280;38002;53.296;6.600;2023-05-23T21:54:51;102615.88;;;10.02;70.44
51986;BME280;38002;53.296;6.600;2023-05-23T21:59:51;102625.13;;;10.00;71.17
51986;BME280;38002;53.296;6.600;2023-05-23T22:04:52;102614.59;;;9.95;71.11
51986;BME280;38002;53.296;6.600;2023-05-23T22:09:54;102617.53;;;9.92;70.99
51986;BME280;38002;53.296;6.600;2023-05-23T22:14:55;102605.63;;;9.82;71.12
51986;BME280;38002;53.296;6.600;2023-05-23T22:19:56;102619.09;;;9.84;71.86
51986;BME280;38002;53.296;6.600;2023-05-23T22:24:57;102615.88;;;9.79;71.69
51986;BME280;38002;53.296;6.600;2023-05-23T22:29:57;102617.06;;;9.75;71.21
51986;BME280;38002;53.296;6.600;2023-05-23T22:34:58;102625.56;;;9.70;71.74
51986;BME280;38002;53.296;6.600;2023-05-23T22:39:58;102619.47;;;9.67;72.01
51986;BME280;38002;53.296;6.600;2023-05-23T22:44:59;102619.81;;;9.62;72.54
51986;BME280;38002;53.296;6.600;2023-05-23T22:49:59;102621.78;;;9.60;72.11
51986;BME280;38002;53.296;6.600;2023-05-23T22:55:00;102623.72;;;9.58;72.71
51986;BME280;38002;53.296;6.600;2023-05-23T23:00:01;102629.41;;;9.55;72.44
51986;BME280;38002;53.296;6.600;2023-05-23T23:05:01;102633.22;;;9.52;72.34
51986;BME280;38002;53.296;6.600;2023-05-23T23:10:02;102628.84;;;9.50;72.92
51986;BME280;38002;53.296;6.600;2023-05-23T23:15:03;102628.13;;;9.48;72.50
51986;BME280;38002;53.296;6.600;2023-05-23T23:20:05;102610.09;;;9.47;73.39
51986;BME280;38002;53.296;6.600;2023-05-23T23:25:07;102609.84;;;9.50;73.50
51986;BME280;38002;53.296;6.600;2023-05-23T23:30:10;102606.16;;;9.51;72.92
51986;BME280;38002;53.296;6.600;2023-05-23T23:35:10;102599.63;;;9.53;73.15
51986;BME280;38002;53.296;6.600;2023-05-23T23:40:11;102596.81;;;9.55;73.72
51986;BME280;38002;53.296;6.600;2023-05-23T23:45:11;102596.56;;;9.58;73.92
51986;BME280;38002;53.296;6.600;2023-05-23T23:50:12;102600.06;;;9.60;73.47
51986;BME280;38002;53.296;6.600;2023-05-23T23:55:13;102587.97;;;9.64;73.76
